»·PEaware :: NGF720 KPHX-KSNA

NGF720 :: KPHX-KSNA

FLIGHT INFORMATION

Flight Status: Arrived
Operator: Unknown
More flights by this operator :: More flights under this callsign
Pilot: Shawn N. (11060)
Aircraft: BEECH AIRCRAFT SUPER KING AIR COMMUTER
(BE20)
More flights by this aircraft type
Origin: KPHX Phoenix Sky Harbor Intl
United States
Destination: KSNA John Wayne-Orange Co
United States
More flights between these airports :: More routes between these airports
Route: +IZZZO6 HRRBR DCT EMLLD DSNEE1
File this flight plan on PilotEdge
Remarks:
Altitude:
(Current/Filed)
28,000ft
Speed:
(Current/Filed)
270kts
Departed: 22-Apr-18 05:40 PM
Arrived: 22-Apr-18 07:02 PM
Distance/Time
Traveled:
293nm/1:22
Distance/Time
To Go:
Arrived

Flight Plot

Page will automatically refresh every two minutes.

Flight plan parsing failed; only flown route is shown


Map Options




Map Legend


Flown Route
Filed Route
Departure Airport
Arrival Airport
Navaid (VOR, NDB)
Fix

Horizontal Profiles

Position Reports

Time Latitude Longitude Heading Altitude Ground
Speed
22-Apr-18 17:29 33.426352 -112.018207 90 1112ft 0kts
22-Apr-18 17:30 33.426352 -112.018207 90 1112ft 0kts
22-Apr-18 17:31 33.426352 -112.018207 90 1112ft 0kts
22-Apr-18 17:32 33.426352 -112.018207 90 1112ft 0kts
22-Apr-18 17:33 33.426352 -112.018206 90 1112ft 0kts
22-Apr-18 17:34 33.426352 -112.018206 90 1112ft 0kts
22-Apr-18 17:35 33.426469 -112.018122 1 1112ft 6kts
22-Apr-18 17:36 33.427653 -112.015610 85 1112ft 13kts
22-Apr-18 17:37 33.427769 -112.010363 92 1112ft 17kts
22-Apr-18 17:38 33.428697 -112.005363 307 1113ft 14kts
22-Apr-18 17:39 33.428814 -112.039826 274 2603ft 145kts
22-Apr-18 17:40 33.431404 -112.089149 271 5427ft 156kts
22-Apr-18 17:41 33.433540 -112.141706 271 8009ft 165kts
22-Apr-18 17:42 33.435733 -112.198485 271 10218ft 177kts
22-Apr-18 17:43 33.438076 -112.258957 271 12000ft 196kts
22-Apr-18 17:44 33.440559 -112.323769 272 14367ft 198kts
22-Apr-18 17:45 33.443024 -112.389728 272 16719ft 199kts
22-Apr-18 17:46 33.445495 -112.456427 272 18899ft 204kts
22-Apr-18 17:47 33.448023 -112.525298 272 20720ft 211kts
22-Apr-18 17:48 33.450586 -112.594816 273 22248ft 216kts
22-Apr-18 17:49 33.452151 -112.666415 270 23569ft 221kts
22-Apr-18 17:50 33.453203 -112.737315 271 25241ft 207kts
22-Apr-18 17:51 33.454980 -112.803853 281 26738ft 201kts
22-Apr-18 17:52 33.466916 -112.867705 282 27966ft 201kts
22-Apr-18 17:53 33.480608 -112.940422 282 27894ft 238kts
22-Apr-18 17:54 33.495521 -113.019890 282 27892ft 250kts
22-Apr-18 17:55 33.510829 -113.101859 282 27817ft 255kts
22-Apr-18 17:56 33.526284 -113.185005 282 27803ft 255kts
22-Apr-18 17:57 33.541527 -113.267287 282 27899ft 253kts
22-Apr-18 17:58 33.556691 -113.349568 282 27898ft 254kts
22-Apr-18 17:59 33.571827 -113.432015 282 27898ft 254kts
22-Apr-18 18:00 33.586961 -113.514600 282 27898ft 254kts
22-Apr-18 18:01 33.602374 -113.596739 282 27897ft 253kts
22-Apr-18 18:02 33.617677 -113.678620 282 27869ft 255kts
22-Apr-18 18:03 33.633047 -113.761134 282 27865ft 255kts
22-Apr-18 18:04 33.648423 -113.844030 282 27864ft 254kts
22-Apr-18 18:05 33.674642 -113.922255 294 27864ft 254kts
22-Apr-18 18:06 33.704338 -113.999146 294 27863ft 254kts
22-Apr-18 18:07 33.734049 -114.076252 294 27863ft 254kts
22-Apr-18 18:08 33.761519 -114.154251 280 27867ft 254kts
22-Apr-18 18:09 33.771558 -114.238428 278 27862ft 256kts
22-Apr-18 18:10 33.781526 -114.323125 278 27862ft 256kts
22-Apr-18 18:11 33.791423 -114.407671 278 27862ft 256kts
22-Apr-18 18:12 33.801257 -114.492243 278 27861ft 256kts
22-Apr-18 18:13 33.811022 -114.576736 278 27861ft 256kts
22-Apr-18 18:14 33.820691 -114.660936 278 27863ft 256kts
22-Apr-18 18:15 33.829872 -114.741323 278 27864ft 257kts
22-Apr-18 18:16 33.839486 -114.826612 276 27863ft 257kts
22-Apr-18 18:17 33.846345 -114.911213 277 27863ft 257kts
22-Apr-18 18:18 33.855490 -114.995847 278 27863ft 257kts
22-Apr-18 18:19 33.864975 -115.081101 278 27863ft 257kts
22-Apr-18 18:20 33.874443 -115.166374 278 27862ft 257kts
22-Apr-18 18:21 33.883845 -115.251562 278 27862ft 257kts
22-Apr-18 18:22 33.893127 -115.336150 278 27861ft 255kts
22-Apr-18 18:23 33.902279 -115.420485 277 27861ft 254kts
22-Apr-18 18:24 33.910984 -115.504904 278 27815ft 255kts
22-Apr-18 18:25 33.919953 -115.589291 278 27814ft 254kts
22-Apr-18 18:26 33.927294 -115.664175 275 27719ft 258kts
22-Apr-18 18:27 33.933449 -115.749693 275 27117ft 269kts
22-Apr-18 18:28 33.939790 -115.838042 275 26631ft 271kts
22-Apr-18 18:29 33.946205 -115.928389 275 26133ft 272kts
22-Apr-18 18:30 33.952541 -116.018788 275 25633ft 273kts
22-Apr-18 18:31 33.958887 -116.110050 276 25023ft 277kts
22-Apr-18 18:32 33.964850 -116.203188 269 24305ft 282kts
22-Apr-18 18:33 33.954244 -116.292758 263 23881ft 276kts
22-Apr-18 18:34 33.943017 -116.383981 263 23181ft 281kts
22-Apr-18 18:35 33.931765 -116.475542 263 22384ft 284kts
22-Apr-18 18:36 33.920106 -116.569037 263 21578ft 287kts
22-Apr-18 18:37 33.908609 -116.658825 262 20712ft 291kts
22-Apr-18 18:38 33.896945 -116.749383 262 19702ft 296kts
22-Apr-18 18:39 33.886166 -116.847655 263 17742ft 300kts
22-Apr-18 18:40 33.876882 -116.932942 263 15963ft 304kts
22-Apr-18 18:41 33.865711 -117.035040 263 13401ft 311kts
22-Apr-18 18:42 33.854658 -117.135022 263 11524ft 295kts
22-Apr-18 18:43 33.846520 -117.208171 263 10461ft 285kts
22-Apr-18 18:44 33.836225 -117.299850 263 9553ft 269kts
22-Apr-18 18:45 33.825841 -117.386386 263 9045ft 258kts
22-Apr-18 18:46 33.811701 -117.469477 249 8498ft 253kts
22-Apr-18 18:47 33.799170 -117.546212 272 7365ft 213kts
22-Apr-18 18:48 33.800384 -117.611163 272 6255ft 191kts
22-Apr-18 18:49 33.795488 -117.669303 262 5984ft 193kts
22-Apr-18 18:50 33.787829 -117.733559 262 5983ft 197kts
22-Apr-18 18:51 33.780936 -117.797755 262 6001ft 197kts
22-Apr-18 18:52 33.820370 -117.836641 353 6002ft 206kts
22-Apr-18 18:53 33.867505 -117.841755 353 5800ft 215kts
22-Apr-18 18:54 33.895471 -117.792655 93 5221ft 219kts
22-Apr-18 18:55 33.884991 -117.734467 160 4240ft 168kts
22-Apr-18 18:56 33.843916 -117.757757 214 3987ft 169kts
22-Apr-18 18:57 33.804552 -117.786944 208 3649ft 179kts
22-Apr-18 18:58 33.761459 -117.813722 207 2650ft 172kts
22-Apr-18 18:59 33.720448 -117.839524 208 1429ft 166kts
22-Apr-18 19:00 33.688156 -117.860924 208 230ft 112kts
22-Apr-18 19:01 33.675748 -117.870267 215 60ft 8kts
22-Apr-18 19:02 33.675940 -117.870909 35 60ft 0kts
22-Apr-18 19:03 33.675940 -117.870909 35 60ft 0kts
22-Apr-18 19:04 33.675940 -117.870909 35 60ft 0kts
22-Apr-18 19:05 33.675940 -117.870909 35 60ft 0kts
22-Apr-18 19:06 33.675940 -117.870909 35 60ft 0kts
22-Apr-18 19:07 33.675940 -117.870909 35 60ft 0kts
22-Apr-18 19:08 33.675940 -117.870909 35 60ft 0kts
22-Apr-18 19:09 33.675940 -117.870909 35 60ft 0kts
22-Apr-18 19:10 33.675940 -117.870909 35 60ft 0kts
22-Apr-18 19:11 33.675940 -117.870909 35 60ft 0kts
22-Apr-18 19:12 33.675940 -117.870909 35 60ft 0kts
22-Apr-18 19:13 33.675940 -117.870909 35 60ft 0kts
22-Apr-18 19:14 33.675940 -117.870909 35 60ft 0kts
22-Apr-18 19:15 33.675940 -117.870909 35 60ft 0kts

Navigation Log

Ident Type
Flight plan parsing failed, navigation log unavailable